| time (UTC) | temp F | wind direction | speed knots | gust knots | rain 1hr in | rain 24hr in | rain mn in | humidity % | barometer mb |
| 20260508090022 | 53 | 72 | 2.6 | 6.1 | 0.00 | 0.00 | 0.00 | 1 | 1013.1 |
| 20260508084513 | 52 | 66 | 3.5 | 5.2 | 0.00 | 0.00 | 0.00 | 1 | 1013.1 |
| 20260508083010 | 50 | 38 | 0.9 | 4.3 | 0.00 | 0.00 | 0.00 | 1 | 1013.1 |
| 20260508081505 | 49 | 41 | 1.7 | 5.2 | 0.00 | 0.00 | 0.00 | 1 | 1013.0 |
| 20260508080101 | 48 | 39 | 1.7 | 5.2 | 0.00 | 0.00 | 0.00 | 1 | 1012.9 |
| 20260508074557 | 47 | 39 | 1.7 | 5.2 | 0.00 | 0.00 | 0.00 | 1 | 1012.9 |
| 20260508073053 | 47 | 49 | 3.5 | 7.0 | 0.00 | 0.00 | 0.00 | 1 | 1012.9 |
| 20260508071549 | 46 | 37 | 0.9 | 3.5 | 0.00 | 0.00 | 0.00 | 1 | 1012.7 |
| 20260508070046 | 46 | 8 | 0.0 | 1.7 | 0.00 | 0.00 | 0.00 | 1 | 1012.7 |
| 20260508064538 | 45 | 22 | 1.7 | 4.3 | 0.00 | 0.00 | 0.00 | 1 | 1012.6 |
| 20260508063033 | 45 | 36 | 0.9 | 4.3 | 0.00 | 0.00 | 0.00 | 1 | 1012.5 |
| 20260508061530 | 45 | 28 | 2.6 | 7.0 | 0.00 | 0.00 | 0.00 | 1 | 1012.5 |
| 20260508060028 | 44 | 49 | 1.7 | 3.5 | 0.00 | 0.00 | 0.00 | 1 | 1012.3 |
| 20260508054523 | 43 | 26 | 1.7 | 3.5 | 0.00 | 0.00 | 0.00 | 1 | 1012.2 |
| 20260508053017 | 43 | 22 | 0.9 | 4.3 | 0.00 | 0.00 | 0.00 | 1 | 1012.1 |
| 20260508051521 | 43 | 49 | 4.3 | 7.8 | 0.00 | 0.00 | 0.00 | 1 | 1012.0 |
| 20260508050010 | 43 | 355 | 1.7 | 4.3 | 0.00 | 0.00 | 0.00 | 1 | 1011.8 |
| 20260508044504 | 43 | 338 | 0.0 | 2.6 | 0.00 | 0.00 | 0.00 | 1 | 1011.9 |
| 20260508043113 | 43 | 17 | 0.0 | 2.6 | 0.00 | 0.00 | 0.00 | 1 | 1012.0 |
| 20260508041557 | 43 | 347 | 0.0 | 2.6 | 0.00 | 0.00 | 0.00 | 1 | 1012.0 |
| 20260508040056 | 44 | 19 | 0.9 | 2.6 | 0.00 | 0.00 | 0.00 | 1 | 1012.0 |
| 20260508034553 | 44 | 65 | 1.7 | 4.3 | 0.00 | 0.00 | 0.00 | 1 | 1011.9 |
| 20260508033042 | 44 | 67 | 0.0 | 2.6 | 0.00 | 0.00 | 0.00 | 1 | 1011.9 |
| 20260508031537 | 44 | 67 | 0.0 | 2.6 | 0.00 | 0.00 | 0.00 | 1 | 1011.9 |
| 20260508030042 | 44 | 67 | 0.0 | 1.7 | 0.00 | 0.00 | 0.00 | 1 | 1011.9 |
| 20260508024535 | 44 | 67 | 0.0 | 2.6 | 0.00 | 0.00 | 0.00 | 1 | 1011.8 |
| 20260508023026 | 44 | 87 | 0.9 | 3.5 | 0.00 | 0.00 | 0.00 | 1 | 1011.8 |
| 20260508021520 | 44 | 136 | 0.0 | 2.6 | 0.00 | 0.00 | 0.00 | 1 | 1011.8 |
| 20260508020016 | 44 | 137 | 0.0 | 0.9 | 0.00 | 0.00 | 0.00 | 1 | 1011.8 |
| 20260508014512 | 44 | 137 | 0.9 | 2.6 | 0.00 | 0.00 | 0.00 | 1 | 1011.7 |
| 20260508013007 | 44 | 164 | 0.0 | 0.0 | 0.00 | 0.00 | 0.00 | 1 | 1011.7 |
| 20260508011504 | 44 | 165 | 0.0 | 0.0 | 0.00 | 0.00 | 0.00 | 1 | 1011.7 |
| 20260508010059 | 45 | 164 | 0.0 | 0.0 | 0.00 | 0.00 | 0.00 | 1 | 1011.8 |
| 20260508004557 | 45 | 164 | 0.0 | 0.0 | 0.00 | 0.00 | 0.00 | 1 | 1011.9 |
| 20260508003050 | 45 | 164 | 0.0 | 0.0 | 0.00 | 0.00 | 0.00 | 1 | 1012.0 |
| 20260508001546 | 45 | 164 | 0.9 | 1.7 | 0.00 | 0.00 | 0.00 | 1 | 1012.1 |
| 20260508000041 | 46 | 164 | 0.0 | 1.7 | 0.00 | 0.00 | 0.00 | 1 | 1012.1 |
| 20260507234538 | 46 | 164 | 0.0 | 0.9 | 0.00 | 0.00 | 0.00 | 1 | 1012.1 |
| 20260507233034 | 46 | 164 | 0.0 | 0.0 | 0.00 | 0.00 | 0.00 | 1 | 1012.1 |
| 20260507231538 | 47 | 164 | 0.0 | 0.0 | 0.00 | 0.00 | 0.00 | 1 | 1012.1 |
| 20260507230024 | 47 | 164 | 0.0 | 0.9 | 0.00 | 0.00 | 0.00 | 1 | 1012.1 |
| 20260507224522 | 47 | 164 | 0.0 | 1.7 | 0.00 | 0.00 | 0.00 | 1 | 1011.9 |
| 20260507223016 | 48 | 186 | 0.0 | 0.9 | 0.00 | 0.00 | 0.00 | 1 | 1011.9 |
| 20260507221515 | 48 | 186 | 0.0 | 1.7 | 0.00 | 0.00 | 0.00 | 2 | 1012.0 |
| 20260507220007 | 49 | 186 | 0.9 | 2.6 | 0.00 | 0.00 | 0.00 | 6 | 1011.8 |
| 20260507214503 | 49 | 176 | 0.9 | 3.5 | 0.00 | 0.00 | 0.00 | 15 | 1011.8 |
| 20260507213103 | 49 | 174 | 2.6 | 4.3 | 0.00 | 0.00 | 0.00 | 19 | 1011.7 |
| 20260507211554 | 50 | 186 | 2.6 | 5.2 | 0.00 | 0.00 | 0.00 | 27 | 1011.7 |
| 20260507210052 | 51 | 159 | 2.6 | 4.3 | 0.00 | 0.00 | 0.00 | 30 | 1011.6 |
| 20260507204546 | 51 | 162 | 2.6 | 3.5 | 0.00 | 0.00 | 0.00 | 30 | 1011.5 |
| 20260507203048 | 51 | 176 | 1.7 | 4.3 | 0.00 | 0.00 | 0.00 | 36 | 1011.4 |
| 20260507201539 | 52 | 164 | 2.6 | 5.2 | 0.00 | 0.00 | 0.00 | 43 | 1011.1 |
| 20260507200044 | 52 | 171 | 2.6 | 8.7 | 0.00 | 0.00 | 0.00 | 47 | 1011.0 |
| 20260507194529 | 53 | 218 | 2.6 | 8.7 | 0.00 | 0.00 | 0.00 | 49 | 1011.0 |
| 20260507193024 | 53 | 158 | 5.2 | 8.7 | 0.00 | 0.00 | 0.00 | 51 | 1010.9 |
| 20260507191520 | 53 | 171 | 3.5 | 9.6 | 0.00 | 0.00 | 0.00 | 54 | 1010.8 |
| 20260507190016 | 53 | 208 | 3.5 | 9.6 | 0.00 | 0.00 | 0.00 | 56 | 1010.8 |
| 20260507184511 | 53 | 291 | 5.2 | 11.3 | 0.00 | 0.00 | 0.00 | 58 | 1010.7 |
| 20260507183022 | 54 | 208 | 7.8 | 13.9 | 0.00 | 0.00 | 0.00 | 58 | 1010.7 |
| 20260507181502 | 54 | 181 | 6.1 | 12.2 | 0.00 | 0.00 | 0.00 | 58 | 1010.6 |
| 20260507180057 | 54 | 198 | 5.2 | 13.0 | 0.00 | 0.00 | 0.00 | 58 | 1010.7 |
| 20260507174605 | 54 | 223 | 5.2 | 12.2 | 0.00 | 0.00 | 0.00 | 60 | 1010.6 |
| 20260507173057 | 54 | 195 | 7.0 | 15.6 | 0.00 | 0.00 | 0.00 | 61 | 1010.6 |
| 20260507171604 | 55 | 176 | 8.7 | 13.9 | 0.00 | 0.00 | 0.00 | 59 | 1010.6 |
| 20260507170040 | 55 | 179 | 7.0 | 15.6 | 0.00 | 0.00 | 0.00 | 59 | 1010.6 |
| 20260507164550 | 55 | 193 | 8.7 | 14.8 | 0.00 | 0.00 | 0.00 | 60 | 1010.5 |
| 20260507163031 | 55 | 184 | 7.0 | 14.8 | 0.00 | 0.00 | 0.00 | 61 | 1010.5 |
| 20260507161539 | 55 | 186 | 7.0 | 16.5 | 0.00 | 0.00 | 0.00 | 61 | 1010.6 |
| 20260507160032 | 56 | 228 | 7.8 | 15.6 | 0.00 | 0.00 | 0.00 | 61 | 1010.5 |
| 20260507154519 | 55 | 226 | 7.8 | 15.6 | 0.00 | 0.00 | 0.00 | 60 | 1010.5 |
| 20260507153015 | 56 | 186 | 10.4 | 17.4 | 0.00 | 0.00 | 0.00 | 60 | 1010.4 |
| 20260507151517 | 55 | 163 | 11.3 | 17.4 | 0.00 | 0.00 | 0.00 | 60 | 1010.3 |
| 20260507150006 | 55 | 191 | 12.2 | 18.2 | 0.00 | 0.00 | 0.00 | 60 | 1010.3 |
| 20260507144501 | 56 | 241 | 13.0 | 20.0 | 0.00 | 0.00 | 0.00 | 61 | 1010.4 |
| 20260507143104 | 56 | 151 | 12.2 | 18.2 | 0.00 | 0.00 | 0.00 | 60 | 1010.4 |
| 20260507141556 | 56 | 149 | 12.2 | 21.7 | 0.00 | 0.00 | 0.00 | 60 | 1010.4 |
| 20260507140048 | 56 | 176 | 11.3 | 18.2 | 0.00 | 0.00 | 0.00 | 60 | 1010.4 |
| 20260507134552 | 56 | 145 | 10.4 | 19.1 | 0.00 | 0.00 | 0.00 | 60 | 1010.5 |
| 20260507133039 | 56 | 129 | 9.6 | 16.5 | 0.00 | 0.00 | 0.00 | 60 | 1010.4 |
| 20260507131539 | 56 | 163 | 9.6 | 16.5 | 0.00 | 0.00 | 0.00 | 61 | 1010.5 |
| 20260507130033 | 55 | 132 | 10.4 | 15.6 | 0.00 | 0.00 | 0.00 | 61 | 1010.6 |
| 20260507124526 | 55 | 180 | 5.2 | 18.2 | 0.00 | 0.00 | 0.00 | 61 | 1010.6 |
| 20260507123022 | 56 | 198 | 7.8 | 16.5 | 0.00 | 0.00 | 0.00 | 61 | 1010.7 |
| 20260507121518 | 55 | 177 | 9.6 | 14.8 | 0.00 | 0.00 | 0.00 | 61 | 1010.8 |
| 20260507120014 | 55 | 165 | 10.4 | 14.8 | 0.00 | 0.00 | 0.00 | 60 | 1010.8 |
| 20260507114520 | 56 | 176 | 7.8 | 13.0 | 0.00 | 0.00 | 0.00 | 60 | 1010.8 |
| 20260507113006 | 55 | 132 | 8.7 | 15.6 | 0.00 | 0.00 | 0.00 | 60 | 1010.8 |
| 20260507111501 | 54 | 149 | 8.7 | 16.5 | 0.00 | 0.00 | 0.00 | 59 | 1010.9 |
| 20260507110110 | 54 | 146 | 7.8 | 13.9 | 0.00 | 0.00 | 0.00 | 55 | 1010.9 |
| 20260507104552 | 54 | 189 | 8.7 | 13.0 | 0.00 | 0.00 | 0.00 | 55 | 1010.9 |
| 20260507103054 | 54 | 145 | 7.0 | 13.0 | 0.00 | 0.00 | 0.00 | 36 | 1010.9 |
| 20260507101548 | 53 | 242 | 4.3 | 7.0 | 0.00 | 0.00 | 0.00 | 10 | 1010.9 |
| 20260507100040 | 52 | 173 | 5.2 | 9.6 | 0.00 | 0.00 | 0.00 | 38 | 1011.0 |
| 20260507094536 | 54 | 141 | 7.8 | 13.0 | 0.00 | 0.00 | 0.00 | 23 | 1010.9 |
| 20260507093030 | 53 | 168 | 5.2 | 8.7 | 0.00 | 0.00 | 0.00 | 22 | 1010.8 |
| 20260507091526 | 54 | 176 | 2.6 | 8.7 | 0.00 | 0.00 | 0.00 | 29 | 1010.8 |